This is the latest recevied weather packets stored in our database for station/object K0WOI. If no packets are shown the sender has not sent any weather packets the latest 1 day(s).
| Time | Temp. | Humidity | Pressure | Rain* | Wind** | Luminosity | Snow |
|---|---|---|---|---|---|---|---|
| 1777990251 | 10.56° C | 48% | 1011.5 hPa | 0 mm | 0 m/s | 174 W/m² | - |
| 1777989948 | 10° C | 53% | 1011.5 hPa | 0 mm | 0 m/s | 148 W/m² | - |
| 1777989644 | 10° C | 57% | 1011.3 hPa | 0 mm | 0 m/s | 171 W/m² | - |
| 1777989341 | 9.44° C | 56% | 1011.2 hPa | 0 mm | 0 m/s | 99 W/m² | - |
| 1777989037 | 10° C | 54% | 1010.8 hPa | 0 mm | 0.45 m/s, 318° | 80 W/m² | - |
| 1777988733 | 10° C | 59% | 1010.9 hPa | 0 mm | 0.45 m/s, 318° | 85 W/m² | - |
| 1777988431 | 9.44° C | 55% | 1010.8 hPa | 0 mm | 0 m/s | 86 W/m² | - |
| 1777988127 | 9.44° C | 62% | 1010.7 hPa | 0 mm | 0 m/s | 104 W/m² | - |
| 1777987832 | 8.89° C | 81% | 1010.9 hPa | 0 mm | 0 m/s | 72 W/m² | - |
| 1777987520 | 8.89° C | 83% | 1010.8 hPa | 0 mm | 0.45 m/s, 318° | 77 W/m² | - |
| 1777987218 | 8.89° C | 83% | 1010.7 hPa | 0 mm | 0.45 m/s, 318° | 86 W/m² | - |
| 1777986914 | 8.33° C | 86% | 1010.3 hPa | 0 mm | 0 m/s | 82 W/m² | - |
| 1777986612 | 8.33° C | 88% | 1010.3 hPa | 0 mm | 0 m/s | 78 W/m² | - |
| 1777986310 | 7.78° C | 90% | 1010.4 hPa | 0 mm | 0 m/s | 68 W/m² | - |
| 1777986009 | 7.78° C | 89% | 1010.4 hPa | 0 mm | 0 m/s | 72 W/m² | - |
| 1777985705 | 7.78° C | 90% | 1010.4 hPa | 0 mm | 0 m/s | 74 W/m² | - |
| 1777985401 | 7.22° C | 89% | 1010.3 hPa | 0 mm | 0 m/s | 67 W/m² | - |
| 1777985098 | 6.67° C | 93% | 1010.2 hPa | 0 mm | 0 m/s | 60 W/m² | - |
| 1777984794 | 6.67° C | 96% | 1010.1 hPa | 0 mm | 0 m/s | 60 W/m² | - |
| 1777984491 | 6.67° C | 97% | 1009.9 hPa | 0 mm | 0 m/s | 65 W/m² | - |
| 1777984187 | 6.11° C | 97% | 1010.2 hPa | 0 mm | 0 m/s | 52 W/m² | - |
| 1777983884 | 6.11° C | 98% | 1010.5 hPa | 0 mm | 0 m/s | 45 W/m² | - |
| 1777983581 | 6.11° C | 98% | 1010.4 hPa | 0 mm | 0 m/s | 45 W/m² | - |
| 1777983278 | 6.11° C | 98% | 1010.5 hPa | 0 mm | 0 m/s | 43 W/m² | - |
| 1777982973 | 5.56° C | 98% | 1010.6 hPa | 0 mm | 0 m/s | 40 W/m² | - |
* Rain latest hour (hover to see other rain measurements)
** Current wind speed in m/s (hover to see current wind gust speed)